Time;durP1;ratioP1;P1;durP2;ratioP2;P2;SDS_P1;SDS_P2;PMS_P1;PMS_P2;Temp;Humidity;BMP_temperature;BMP_pressure;BME280_temperature;BME280_humidity;BME280_pressure;Samples;Min_cycle;Max_cycle;Signal;HPM_P1;HPM_P2
2022/10/23 00:00:28;;;;;;;6.07;3.10;;;12.30;99.90;;;11.38;100.00;97429.09;5030987;28;20410;-69
2022/10/23 00:02:55;;;;;;;10.27;3.30;;;12.30;99.90;;;11.38;100.00;97421.13;5030392;28;20897;-69
2022/10/23 00:05:22;;;;;;;9.82;3.20;;;12.30;99.90;;;11.36;100.00;97420.59;5030773;28;20403;-69
2022/10/23 00:07:52;;;;;;;7.73;3.50;;;12.30;99.90;;;11.32;100.00;97411.56;5030794;28;20570;-69
2022/10/23 00:10:20;;;;;;;10.73;3.35;;;12.30;99.90;;;11.31;100.00;97403.84;5030700;28;20494;-69
2022/10/23 00:12:47;;;;;;;6.13;3.10;;;12.20;99.90;;;11.28;100.00;97405.16;5030333;28;20415;-69
2022/10/23 00:15:16;;;;;;;13.90;3.40;;;12.20;99.90;;;11.25;100.00;97406.47;5030023;28;20422;-69
2022/10/23 00:17:42;;;;;;;9.43;3.40;;;12.20;99.90;;;11.24;100.00;97410.19;5030275;28;20426;-69
2022/10/23 00:20:10;;;;;;;9.13;3.37;;;12.20;99.90;;;11.21;100.00;97407.22;5030422;28;20892;-69
2022/10/23 00:22:36;;;;;;;11.30;3.10;;;12.20;99.90;;;11.16;100.00;97399.25;5028464;28;20396;-69
2022/10/23 00:25:03;;;;;;;5.55;3.08;;;12.10;99.90;;;11.14;100.00;97404.78;5030192;28;20788;-69
2022/10/23 00:27:29;;;;;;;13.82;3.10;;;12.10;99.90;;;11.14;100.00;97407.44;5030610;28;20440;-70
2022/10/23 00:29:55;;;;;;;9.80;3.15;;;12.10;99.90;;;11.08;100.00;97415.59;5030488;28;20784;-69
2022/10/23 00:32:21;;;;;;;12.65;3.22;;;12.00;99.90;;;11.06;100.00;97426.44;5030486;28;20508;-69
2022/10/23 00:34:46;;;;;;;8.48;3.33;;;12.00;99.90;;;11.02;100.00;97417.44;5030128;28;20760;-70
2022/10/23 00:37:14;;;;;;;12.50;3.43;;;12.00;99.90;;;11.03;100.00;97418.22;5030442;28;20432;-69
2022/10/23 00:39:40;;;;;;;7.25;2.95;;;12.00;99.90;;;11.03;100.00;97420.88;5030097;28;20446;-69
2022/10/23 00:42:06;;;;;;;10.88;3.33;;;12.00;99.90;;;11.02;100.00;97414.78;5030294;28;20399;-70
2022/10/23 00:45:13;;;;;;;11.60;3.23;;;12.00;99.90;;;11.03;100.00;97411.09;5029869;28;20407;-69
2022/10/23 00:47:39;;;;;;;12.52;3.25;;;12.00;99.90;;;11.04;100.00;97411.88;5030304;28;20499;-69
2022/10/23 00:50:06;;;;;;;7.23;2.60;;;12.00;99.90;;;11.04;100.00;97407.38;5030267;28;20814;-69
2022/10/23 00:52:37;;;;;;;6.93;2.80;;;12.00;99.90;;;11.03;100.00;97405.78;5030163;28;20420;-69
2022/10/23 00:55:04;;;;;;;10.52;2.95;;;12.00;99.90;;;11.02;100.00;97396.25;5029945;28;20407;-69
2022/10/23 00:57:30;;;;;;;5.35;2.80;;;12.00;99.90;;;11.04;100.00;97388.03;5030220;28;20406;-70
2022/10/23 00:59:56;;;;;;;9.67;2.90;;;12.00;99.90;;;11.02;100.00;97401.53;5030227;28;20961;-70
2022/10/23 01:02:22;;;;;;;11.05;2.85;;;12.00;99.90;;;11.01;100.00;97396.47;5030228;28;20395;-69
2022/10/23 01:04:48;;;;;;;9.88;2.90;;;12.00;99.90;;;11.00;100.00;97400.97;5029821;28;20431;-69
2022/10/23 01:07:21;;;;;;;8.27;3.10;;;12.00;99.90;;;10.98;100.00;97400.44;5030185;28;20453;-69
2022/10/23 01:10:02;;;;;;;11.48;3.05;;;12.00;99.90;;;10.98;100.00;97394.34;5030221;28;20469;-69
2022/10/23 01:12:39;;;;;;;12.80;3.13;;;11.90;99.90;;;10.99;100.00;97396.72;5030150;28;20415;-69
2022/10/23 01:15:14;;;;;;;14.27;3.40;;;11.90;99.90;;;11.01;100.00;97397.28;5030009;28;20756;-69
2022/10/23 01:17:44;;;;;;;15.70;3.58;;;11.90;99.90;;;11.05;100.00;97387.00;5030152;28;20410;-69
2022/10/23 01:20:27;;;;;;;7.80;3.38;;;12.00;99.90;;;11.04;100.00;97382.75;5030190;28;20395;-69
2022/10/23 01:23:38;;;;;;;13.52;2.97;;;12.00;99.90;;;11.02;100.00;97376.91;5029764;28;20403;-69
2022/10/23 01:26:45;;;;;;;10.75;2.70;;;11.90;99.90;;;11.04;100.00;97380.91;5030063;28;20468;-70
2022/10/23 01:29:19;;;;;;;17.92;3.47;;;12.00;99.90;;;11.06;100.00;97367.38;5017113;28;20915;-69
2022/10/23 01:31:51;;;;;;;8.43;3.05;;;12.00;99.90;;;11.05;100.00;97369.22;5030015;28;20761;-69
2022/10/23 01:34:22;;;;;;;7.47;2.90;;;12.00;99.90;;;11.06;100.00;97370.03;5030817;28;21506;-69
2022/10/23 01:36:51;;;;;;;7.88;2.78;;;12.00;99.90;;;11.05;100.00;97363.94;5033574;28;20443;-69
2022/10/23 01:39:22;;;;;;;8.48;2.92;;;12.00;99.90;;;11.06;100.00;97367.38;5033446;28;20426;-69
2022/10/23 01:41:52;;;;;;;11.10;3.00;;;12.00;99.90;;;11.06;100.00;97359.44;5033660;28;20399;-68
2022/10/23 01:44:26;;;;;;;14.20;3.67;;;12.00;99.90;;;11.07;100.00;97345.94;5033074;28;20406;-68
2022/10/23 01:46:53;;;;;;;9.85;2.90;;;12.00;99.90;;;11.08;100.00;97357.34;5033263;28;20923;-69
2022/10/23 01:49:21;;;;;;;6.47;2.67;;;12.00;99.90;;;11.11;100.00;97357.63;5033285;28;20417;-69
2022/10/23 01:51:52;;;;;;;10.60;2.63;;;12.00;99.90;;;11.13;100.00;97350.22;5013639;28;20397;-69
2022/10/23 01:54:22;;;;;;;10.52;3.00;;;12.00;99.90;;;11.09;100.00;97343.84;5013278;28;20542;-69
2022/10/23 01:56:51;;;;;;;12.60;2.75;;;12.00;99.90;;;11.10;100.00;97360.53;5013535;28;20409;-69
2022/10/23 01:59:24;;;;;;;16.33;3.00;;;12.00;99.90;;;11.10;100.00;97348.09;5013325;28;20412;-68
2022/10/23 02:01:53;;;;;;;10.50;2.60;;;12.00;99.90;;;11.10;100.00;97347.28;5013464;28;20500;-69
2022/10/23 02:04:24;;;;;;;10.45;2.67;;;12.00;99.90;;;11.05;100.00;97348.03;5012968;28;20401;-69
2022/10/23 02:06:50;;;;;;;9.95;3.30;;;12.00;99.90;;;11.02;100.00;97348.56;5028519;28;20466;-69
2022/10/23 02:09:16;;;;;;;6.25;2.72;;;12.00;99.90;;;11.02;100.00;97331.88;5013132;28;20409;-68
2022/10/23 02:11:51;;;;;;;10.63;3.25;;;12.00;99.90;;;11.01;100.00;97335.56;5013155;28;20440;-69
2022/10/23 02:14:28;;;;;;;10.32;2.50;;;11.90;99.90;;;10.99;100.00;97348.25;5012769;28;20861;-69
2022/10/23 02:16:56;;;;;;;10.63;2.73;;;11.90;99.90;;;10.97;100.00;97330.00;5013108;28;20491;-69
2022/10/23 02:19:30;;;;;;;5.03;2.40;;;11.90;99.90;;;10.97;100.00;97327.34;5012991;28;20495;-69
2022/10/23 02:22:03;;;;;;;10.90;2.60;;;11.90;99.90;;;10.97;100.00;97327.34;5013037;28;20404;-69
2022/10/23 02:24:35;;;;;;;8.25;2.60;;;11.90;99.90;;;10.96;100.00;97331.03;5012613;28;20492;-70
2022/10/23 02:27:07;;;;;;;13.98;2.60;;;11.90;99.90;;;10.97;100.00;97330.00;5012920;28;20404;-69
2022/10/23 02:29:37;;;;;;;7.00;2.72;;;11.90;99.90;;;10.97;100.00;97324.69;5012876;28;20416;-69
2022/10/23 02:32:06;;;;;;;8.80;2.78;;;11.90;99.90;;;10.98;100.00;97323.63;5028026;28;20409;-69
2022/10/23 02:34:32;;;;;;;8.57;2.60;;;11.90;99.90;;;11.00;100.00;97326.03;5012341;28;20423;-69
2022/10/23 02:36:58;;;;;;;6.43;2.78;;;11.90;99.90;;;11.01;100.00;97317.03;5012622;28;20408;-70
2022/10/23 02:39:26;;;;;;;9.50;2.70;;;11.90;99.90;;;11.03;100.00;97315.72;5012544;28;20546;-70
2022/10/23 02:42:01;;;;;;;5.70;2.58;;;12.00;99.90;;;11.03;100.00;97318.38;5012785;28;20400;-69
2022/10/23 02:44:44;;;;;;;8.18;2.58;;;12.00;99.90;;;11.04;100.00;97314.69;5012230;28;20409;-70
2022/10/23 02:47:24;;;;;;;10.40;3.15;;;12.00;99.90;;;11.05;100.00;97304.88;5011818;28;20400;-69
2022/10/23 02:50:01;;;;;;;7.30;2.58;;;12.00;99.90;;;11.06;100.00;97309.91;5012391;28;20440;-69
2022/10/23 02:52:37;;;;;;;6.40;2.80;;;12.00;99.90;;;11.05;100.00;97305.66;5012400;28;20427;-69
2022/10/23 02:55:19;;;;;;;14.07;2.97;;;12.00;99.90;;;11.05;100.00;97294.28;5012021;28;21056;-69
2022/10/23 02:57:52;;;;;;;7.75;2.53;;;12.00;99.90;;;11.04;100.00;97300.63;5012361;28;20408;-69
2022/10/23 03:00:21;;;;;;;9.35;2.70;;;12.00;99.90;;;11.03;100.00;97297.19;5012263;28;20408;-69
2022/10/23 03:02:56;;;;;;;7.25;3.55;;;12.00;99.90;;;11.03;100.00;97299.84;5011821;28;20409;-69
2022/10/23 03:05:26;;;;;;;16.58;3.20;;;12.00;99.90;;;11.03;100.00;97299.03;5012109;28;20402;-69
2022/10/23 03:07:52;;;;;;;5.20;2.63;;;12.00;99.90;;;11.04;100.00;97296.13;5012191;28;20482;-70
2022/10/23 03:10:18;;;;;;;6.45;2.70;;;12.00;99.90;;;11.03;100.00;97296.38;5012083;28;20467;-69
2022/10/23 03:12:45;;;;;;;5.75;2.50;;;12.00;99.90;;;11.02;100.00;97292.94;5011846;28;20424;-69
2022/10/23 03:15:11;;;;;;;5.33;2.63;;;11.90;99.90;;;11.01;100.00;97294.00;5012133;28;20401;-69
2022/10/23 03:17:39;;;;;;;8.90;2.90;;;12.00;99.90;;;11.02;100.00;97300.88;5012153;28;20774;-69
2022/10/23 03:20:07;;;;;;;4.30;2.67;;;12.00;99.90;;;11.01;100.00;97298.47;5011907;28;20837;-69
2022/10/23 03:22:33;;;;;;;6.82;2.55;;;11.90;99.90;;;11.00;100.00;97302.97;5011904;28;20404;-69
2022/10/23 03:24:59;;;;;;;5.90;2.65;;;12.00;99.90;;;10.99;100.00;97297.94;5011422;28;20965;-68
2022/10/23 03:27:25;;;;;;;8.68;2.63;;;11.90;99.90;;;10.96;100.00;97295.81;5011891;28;20987;-69
2022/10/23 03:29:51;;;;;;;9.48;2.55;;;11.90;99.90;;;10.92;100.00;97289.41;5011778;28;20412;-69
2022/10/23 03:32:17;;;;;;;12.80;2.83;;;11.80;99.90;;;10.89;100.00;97284.66;5011660;28;20415;-69
2022/10/23 03:34:44;;;;;;;9.05;2.60;;;11.80;99.90;;;10.85;100.00;97282.50;5011231;28;20412;-69
2022/10/23 03:37:10;;;;;;;4.82;2.33;;;11.80;99.90;;;10.85;100.00;97287.00;5011713;28;20431;-69
2022/10/23 03:39:36;;;;;;;10.85;2.58;;;11.80;99.90;;;10.82;100.00;97279.56;5011440;28;20462;-69
2022/10/23 03:42:02;;;;;;;9.03;2.83;;;11.80;99.90;;;10.83;100.00;97278.50;5011564;28;20436;-69
2022/10/23 03:44:30;;;;;;;5.43;2.42;;;11.80;99.90;;;10.83;100.00;97286.44;5011226;28;20405;-70
2022/10/23 03:46:56;;;;;;;5.28;2.60;;;11.80;99.90;;;10.83;100.00;97283.78;5011522;28;20397;-69
2022/10/23 03:49:22;;;;;;;4.70;2.72;;;11.80;99.90;;;10.82;100.00;97280.38;5011297;28;20441;-69
2022/10/23 03:51:51;;;;;;;6.57;2.72;;;11.80;99.90;;;10.83;100.00;97274.00;5011450;28;20415;-69
2022/10/23 03:54:20;;;;;;;3.00;2.35;;;11.80;99.90;;;10.82;100.00;97272.44;5010858;28;20420;-68
2022/10/23 03:56:46;;;;;;;7.55;2.40;;;11.80;99.90;;;10.81;100.00;97270.84;5011151;28;20408;-68
2022/10/23 03:59:12;;;;;;;4.20;2.30;;;11.80;99.90;;;10.83;100.00;97275.84;5011289;28;20520;-69
2022/10/23 04:01:37;;;;;;;7.88;2.72;;;11.80;99.90;;;10.82;100.00;97274.28;5011136;28;20408;-68
2022/10/23 04:04:03;;;;;;;11.47;2.73;;;11.80;99.90;;;10.81;100.00;97272.69;5010783;28;20436;-68
2022/10/23 04:06:29;;;;;;;10.50;2.60;;;11.70;99.90;;;10.80;100.00;97276.38;5011115;28;20401;-68
2022/10/23 04:08:56;;;;;;;5.07;2.55;;;11.70;99.90;;;10.79;100.00;97269.47;5011025;28;20945;-68
2022/10/23 04:11:22;;;;;;;8.43;2.50;;;11.70;99.90;;;10.80;100.00;97277.19;5009898;28;20499;-69
2022/10/23 04:13:48;;;;;;;10.43;2.53;;;11.70;99.90;;;10.81;100.00;97278.78;5010569;28;20559;-69
2022/10/23 04:16:14;;;;;;;18.42;2.67;;;11.70;99.90;;;10.83;100.00;97276.66;5021334;28;20407;-69
2022/10/23 04:18:41;;;;;;;10.18;2.38;;;11.70;99.90;;;10.83;100.00;97275.84;5030265;28;20399;-69
2022/10/23 04:21:07;;;;;;;10.30;2.70;;;11.80;99.90;;;10.85;100.00;97281.69;5019577;28;20783;-68
2022/10/23 04:23:33;;;;;;;7.35;2.47;;;11.80;99.90;;;10.85;100.00;97281.69;5013143;28;20421;-69
2022/10/23 04:26:00;;;;;;;7.05;2.40;;;11.80;99.90;;;10.88;100.00;97281.19;5009321;28;20441;-69
2022/10/23 04:28:27;;;;;;;6.10;2.30;;;11.80;99.90;;;10.91;100.00;97277.22;5027226;28;20410;-68
2022/10/23 04:30:53;;;;;;;10.40;2.83;;;11.80;99.90;;;10.90;100.00;97284.38;5023934;28;20776;-69
2022/10/23 04:33:19;;;;;;;8.95;2.80;;;11.80;99.90;;;10.92;100.00;97282.28;5030000;28;20553;-69
2022/10/23 04:35:45;;;;;;;10.77;2.77;;;11.90;99.90;;;10.96;100.00;97285.22;5030385;28;20504;-68
2022/10/23 04:38:10;;;;;;;4.80;2.33;;;11.90;99.90;;;10.99;100.00;97284.69;5027287;28;20407;-69
2022/10/23 04:40:37;;;;;;;6.35;2.40;;;11.90;99.90;;;11.03;100.00;97281.28;5027217;28;20410;-68
2022/10/23 04:43:04;;;;;;;8.55;2.60;;;11.90;99.90;;;11.04;100.00;97274.16;5030078;28;20983;-68
2022/10/23 04:45:30;;;;;;;7.43;2.45;;;12.00;99.90;;;11.08;100.00;97272.56;5030380;28;20407;-68
2022/10/23 04:47:56;;;;;;;9.35;2.58;;;12.00;99.90;;;11.06;100.00;97272.81;5030392;28;20407;-69
2022/10/23 04:50:22;;;;;;;5.82;2.90;;;12.00;99.90;;;11.09;100.00;97274.16;5030311;28;20442;-68
2022/10/23 04:52:48;;;;;;;14.30;2.70;;;12.00;99.90;;;11.09;100.00;97272.31;5029490;28;20908;-69
2022/10/23 04:55:14;;;;;;;6.78;2.58;;;12.00;99.90;;;11.12;100.00;97273.66;5021787;28;20438;-69
2022/10/23 04:57:40;;;;;;;6.65;2.70;;;12.00;99.90;;;11.13;100.00;97273.38;5024107;28;20403;-68
2022/10/23 05:00:11;;;;;;;4.55;2.30;;;12.00;99.90;;;11.15;100.00;97268.63;5030063;28;20441;-69
2022/10/23 05:02:37;;;;;;;3.28;2.30;;;12.00;99.90;;;11.17;100.00;97274.47;5029952;28;20407;-69
2022/10/23 05:05:04;;;;;;;4.72;2.53;;;12.10;99.90;;;11.19;100.00;97272.38;5028509;28;20425;-69
2022/10/23 05:07:30;;;;;;;6.28;2.70;;;12.10;99.90;;;11.20;100.00;97266.00;5024129;28;20411;-69
2022/10/23 05:09:56;;;;;;;4.40;2.50;;;12.10;99.90;;;11.19;100.00;97261.78;5032505;28;20443;-69
2022/10/23 05:12:24;;;;;;;6.80;2.60;;;12.10;99.90;;;11.21;100.00;97269.44;5024794;28;20442;-69
2022/10/23 05:14:50;;;;;;;10.88;2.75;;;12.10;99.90;;;11.16;100.00;97264.13;5018979;28;20412;-69
2022/10/23 05:17:22;;;;;;;7.93;3.05;;;12.10;99.90;;;11.13;100.00;97260.13;5021471;28;20405;-69
2022/10/23 05:19:52;;;;;;;5.53;2.65;;;12.00;99.90;;;11.11;100.00;97262.28;5024045;28;20806;-68
2022/10/23 05:22:19;;;;;;;7.65;3.25;;;12.10;99.90;;;11.11;100.00;97258.81;5028037;28;20408;-68
2022/10/23 05:24:45;;;;;;;8.20;3.05;;;12.10;99.90;;;11.08;100.00;97254.81;5033439;28;20476;-68
2022/10/23 05:27:11;;;;;;;4.75;2.97;;;12.00;99.90;;;11.06;100.00;97256.13;5033905;28;20403;-70
2022/10/23 05:29:37;;;;;;;7.47;3.15;;;12.00;99.90;;;11.04;100.00;97260.91;5027296;28;20409;-70
2022/10/23 05:32:05;;;;;;;4.23;2.97;;;12.00;99.90;;;11.05;100.00;97260.63;5024915;28;20430;-69
2022/10/23 05:34:35;;;;;;;7.32;2.97;;;12.00;99.90;;;11.04;100.00;97259.06;5033163;28;20415;-69
2022/10/23 05:37:02;;;;;;;8.65;3.40;;;12.00;99.90;;;11.02;100.00;97250.56;5033765;28;20399;-69
2022/10/23 05:39:28;;;;;;;6.95;3.00;;;12.00;99.90;;;11.01;100.00;97254.25;5046350;22;20576;-74
2022/10/23 05:41:54;;;;;;;5.10;3.00;;;11.90;99.90;;;11.00;100.00;97247.38;5043527;28;20917;-74
2022/10/23 05:44:20;;;;;;;4.60;3.17;;;11.90;99.90;;;10.98;100.00;97251.31;5039893;28;20404;-73
2022/10/23 05:46:46;;;;;;;13.43;3.30;;;11.90;99.90;;;10.96;100.00;97248.16;5032911;28;20461;-74
2022/10/23 05:49:12;;;;;;;8.23;3.20;;;11.90;99.90;;;10.92;100.00;97242.53;5035796;28;20398;-73
2022/10/23 05:51:40;;;;;;;4.40;2.83;;;11.90;99.90;;;10.89;100.00;97236.97;5033304;28;20476;-74
2022/10/23 05:54:07;;;;;;;6.82;3.33;;;11.90;99.90;;;10.88;100.00;97230.88;5032875;28;20415;-74
2022/10/23 05:56:33;;;;;;;6.20;2.80;;;11.80;99.90;;;10.86;100.00;97227.69;5041186;28;20414;-74
2022/10/23 05:58:59;;;;;;;7.10;3.20;;;11.80;99.90;;;10.85;100.00;97226.88;5043365;28;20411;-74
2022/10/23 06:01:24;;;;;;;6.23;2.90;;;11.80;99.90;;;10.84;100.00;97230.59;5043511;28;20428;-74
2022/10/23 06:03:50;;;;;;;4.43;3.05;;;11.80;99.90;;;10.82;100.00;97230.06;5045819;28;21102;-74
2022/10/23 06:06:16;;;;;;;6.70;3.22;;;11.70;99.90;;;10.82;100.00;97230.06;5041925;28;20413;-73
2022/10/23 06:08:43;;;;;;;9.55;3.05;;;11.80;99.90;;;10.81;100.00;97230.31;5042426;28;20442;-74
2022/10/23 06:11:12;;;;;;;4.30;2.80;;;11.70;99.90;;;10.82;100.00;97230.06;5040105;28;20412;-74
2022/10/23 06:13:41;;;;;;;5.65;2.90;;;11.70;99.90;;;10.84;100.00;97225.28;5043213;28;20929;-74
2022/10/23 06:16:09;;;;;;;6.03;2.60;;;11.80;99.90;;;10.88;100.00;97224.78;5405372;22;20530;-73
2022/10/23 06:18:35;;;;;;;8.57;2.80;;;11.80;99.90;;;10.89;100.00;97219.25;5025823;28;20413;-74
2022/10/23 06:21:01;;;;;;;5.35;2.90;;;11.80;99.90;;;10.89;100.00;97219.25;5010898;28;20448;-73
2022/10/23 06:23:29;;;;;;;3.95;2.60;;;11.80;99.90;;;10.90;100.00;97228.75;5005050;28;20955;-73
2022/10/23 06:25:56;;;;;;;6.00;3.00;;;11.80;99.90;;;10.91;100.00;97230.34;4995850;28;20824;-74
2022/10/23 06:28:22;;;;;;;6.05;2.92;;;11.80;99.90;;;10.95;100.00;97228.81;5012235;22;20506;-67
2022/10/23 06:30:48;;;;;;;5.43;3.57;;;11.90;99.90;;;10.97;100.00;97224.06;5031670;28;20804;-68
2022/10/23 06:33:13;;;;;;;9.50;3.53;;;11.90;99.90;;;10.98;100.00;97225.63;5032055;28;20494;-68
2022/10/23 06:35:39;;;;;;;4.65;2.95;;;11.90;99.90;;;11.00;100.00;97230.66;5032428;28;20410;-68
2022/10/23 06:38:05;;;;;;;5.90;3.30;;;11.90;99.90;;;11.02;100.00;97231.22;5032384;28;20769;-69
2022/10/23 06:40:31;;;;;;;4.18;3.03;;;11.90;99.90;;;11.04;100.00;97221.16;5032626;28;20407;-69
2022/10/23 06:42:58;;;;;;;6.03;3.05;;;11.90;99.90;;;11.05;100.00;97220.13;5031999;28;20399;-69
2022/10/23 06:45:24;;;;;;;4.67;3.20;;;12.00;99.90;;;11.08;100.00;97227.53;5032241;28;20780;-69
2022/10/23 06:47:50;;;;;;;6.68;3.17;;;12.00;99.90;;;11.09;100.00;97219.34;5032331;28;20442;-69
2022/10/23 06:50:16;;;;;;;6.63;3.50;;;12.00;99.90;;;11.12;100.00;97220.69;5025033;28;20417;-70
2022/10/23 06:52:42;;;;;;;9.40;3.53;;;12.00;99.90;;;11.12;100.00;97215.38;5025774;28;20430;-70
2022/10/23 06:55:09;;;;;;;14.85;3.33;;;12.00;99.90;;;11.16;100.00;97217.25;5023132;28;20496;-70
2022/10/23 06:57:35;;;;;;;9.77;2.30;;;12.10;99.90;;;11.21;100.00;97216.47;5023514;28;20461;-70
2022/10/23 07:00:03;;;;;;;7.65;2.20;;;12.10;99.90;;;11.25;100.00;97213.06;5032082;28;21074;-71
2022/10/23 07:02:29;;;;;;;9.43;2.40;;;12.10;99.90;;;11.34;100.00;97216.00;5022587;28;20543;-70
2022/10/23 07:04:55;;;;;;;4.25;2.05;;;12.20;99.90;;;11.45;100.00;97209.66;5035183;28;20417;-69
2022/10/23 07:07:21;;;;;;;3.42;1.70;;;12.30;99.90;;;11.52;100.00;97212.06;5035120;28;20450;-72
2022/10/23 07:09:47;;;;;;;4.70;1.67;;;12.30;99.90;;;11.54;100.00;97213.41;5030411;28;20948;-71
2022/10/23 07:12:13;;;;;;;5.00;1.80;;;12.40;99.90;;;11.60;100.00;97222.16;5030861;28;20496;-73
2022/10/23 07:14:39;;;;;;;7.60;1.60;;;12.40;99.90;;;11.64;100.00;97221.41;5032321;28;20422;-72
2022/10/23 07:17:06;;;;;;;4.22;1.80;;;12.50;99.90;;;11.71;100.00;97213.19;5036900;28;20414;-72
2022/10/23 07:19:32;;;;;;;3.92;1.60;;;12.50;99.90;;;11.75;100.00;97218.78;5032946;28;20411;-71
2022/10/23 07:21:57;;;;;;;4.10;1.60;;;12.60;99.90;;;11.81;100.00;97220.38;5042756;28;20450;-73
2022/10/23 07:24:24;;;;;;;5.27;1.50;;;12.60;99.90;;;11.85;100.00;97213.50;5035926;28;20477;-72
2022/10/23 07:26:49;;;;;;;5.50;1.60;;;12.70;99.90;;;11.93;100.00;97215.66;5027133;28;20421;-72
2022/10/23 07:29:15;;;;;;;3.45;1.52;;;12.70;99.90;;;11.99;100.00;97209.28;5031705;28;20422;-72
2022/10/23 07:31:41;;;;;;;9.57;1.85;;;12.80;99.90;;;12.08;100.00;97201.59;5022391;28;20415;-72
2022/10/23 07:34:09;;;;;;;3.85;1.40;;;12.90;99.90;;;12.08;100.00;97206.91;5037283;28;20413;-72
2022/10/23 07:36:35;;;;;;;2.47;1.48;;;12.90;99.90;;;12.17;100.00;97213.28;5040508;28;20410;-72
2022/10/23 07:39:02;;;;;;;3.55;1.30;;;13.00;99.90;;;12.17;100.00;97219.38;5045139;28;20407;-72
2022/10/23 07:41:28;;;;;;;6.13;1.40;;;13.00;99.90;;;12.15;100.00;97218.84;5034557;28;20907;-71
2022/10/23 07:43:54;;;;;;;7.20;1.50;;;13.00;99.90;;;12.24;100.00;97214.63;5045803;28;20479;-72
2022/10/23 07:46:20;;;;;;;5.13;1.42;;;13.10;99.90;;;12.39;100.00;97216.47;5039138;28;20432;-72
2022/10/23 07:48:46;;;;;;;9.17;1.57;;;13.20;99.90;;;12.53;100.00;97222.81;5038913;28;20481;-72
2022/10/23 07:51:14;;;;;;;3.07;1.20;;;13.40;99.90;;;12.61;100.00;97218.84;5046381;28;20889;-72
2022/10/23 07:53:42;;;;;;;3.00;1.40;;;13.40;99.90;;;12.75;100.00;97218.00;5033668;28;20462;-72
2022/10/23 07:56:14;;;;;;;3.05;1.23;;;13.50;99.90;;;12.87;100.00;97230.19;5044107;28;20403;-71
2022/10/23 07:58:40;;;;;;;2.53;1.10;;;13.60;99.90;;;13.04;100.00;97220.06;5041805;28;20891;-71
2022/10/23 08:01:16;;;;;;;3.00;1.20;;;13.80;99.90;;;13.10;100.00;97221.63;5036036;28;20403;-71
2022/10/23 08:03:43;;;;;;;3.13;1.30;;;13.90;99.90;;;13.10;100.00;97221.63;5046668;28;20464;-71
2022/10/23 08:06:09;;;;;;;6.60;1.27;;;13.80;99.90;;;13.03;100.00;97213.94;5037358;28;20409;-71
2022/10/23 08:08:37;;;;;;;5.10;1.30;;;13.90;99.90;;;13.17;100.00;97209.69;5040078;28;20746;-71
2022/10/23 08:11:03;;;;;;;2.42;1.27;;;13.90;99.90;;;13.29;100.00;97204.06;5044755;28;20401;-71
2022/10/23 08:13:29;;;;;;;2.78;1.10;;;14.10;99.90;;;13.36;100.00;97203.78;5030976;28;20431;-71
2022/10/23 08:15:55;;;;;;;1.98;1.08;;;14.10;99.90;;;13.43;100.00;97207.72;5028172;28;20418;-71
2022/10/23 08:18:21;;;;;;;2.50;1.20;;;14.20;99.90;;;13.55;100.00;97210.84;5032422;28;20407;-71
2022/10/23 08:20:49;;;;;;;2.65;1.05;;;14.30;99.90;;;13.57;100.00;97207.91;5031250;28;20447;-71
2022/10/23 08:23:17;;;;;;;4.07;1.13;;;14.30;99.90;;;13.65;100.00;97201.22;5034366;28;20425;-69
2022/10/23 08:25:45;;;;;;;4.40;1.20;;;14.40;99.90;;;13.67;100.00;97201.75;5025228;28;20816;-69
2022/10/23 08:28:11;;;;;;;3.57;1.43;;;14.50;99.90;;;13.85;100.00;97198.44;5023677;28;20418;-71
2022/10/23 08:30:37;;;;;;;1.67;1.10;;;14.60;99.90;;;13.97;100.00;97195.44;5026684;28;20414;-71
2022/10/23 08:33:03;;;;;;;1.17;1.08;;;14.70;99.90;;;14.08;100.00;97197.75;5026202;28;20789;-72
2022/10/23 08:35:29;;;;;;;2.88;1.08;;;14.80;99.90;;;14.13;100.00;97195.06;5022058;28;20425;-72
2022/10/23 08:37:55;;;;;;;3.10;1.02;;;14.90;99.90;;;14.31;100.00;97183.72;5023549;28;20410;-72
2022/10/23 08:40:24;;;;;;;2.95;0.88;;;15.00;99.90;;;14.20;100.00;97187.53;5030443;28;20407;-72
2022/10/23 08:42:57;;;;;;;3.00;0.97;;;14.90;99.90;;;14.17;100.00;97184.63;5043860;28;20476;-72
2022/10/23 08:45:32;;;;;;;2.75;1.17;;;14.90;99.90;;;14.18;100.00;97192.34;5026478;28;20414;-72
2022/10/23 08:48:09;;;;;;;1.90;1.10;;;14.90;99.90;;;14.23;100.00;97178.97;5026681;28;20825;-72
2022/10/23 08:50:39;;;;;;;1.98;1.00;;;14.90;99.90;;;14.26;100.00;97175.78;5030039;28;20481;-71
2022/10/23 08:53:15;;;;;;;1.23;0.93;;;15.00;99.90;;;14.25;100.00;97173.38;5032760;28;20426;-72
2022/10/23 08:55:45;;;;;;;3.40;1.08;;;15.00;99.90;;;14.26;100.00;97178.44;5031210;28;20415;-72
2022/10/23 08:58:18;;;;;;;2.63;1.10;;;15.00;99.90;;;14.26;100.00;97178.44;5028309;28;20478;-72
2022/10/23 09:00:48;;;;;;;3.50;1.15;;;15.00;99.90;;;14.35;100.00;97181.31;5033789;28;20471;-72
2022/10/23 09:03:15;;;;;;;5.40;1.45;;;15.10;99.90;;;14.35;100.00;97170.66;5043884;28;20405;-71
2022/10/23 09:06:06;;;;;;;5.63;1.30;;;15.20;99.90;;;14.61;100.00;97171.22;5023441;28;20431;-72
2022/10/23 09:08:46;;;;;;;1.92;1.20;;;15.30;99.90;;;14.70;100.00;97174.84;5033465;28;20405;-71
2022/10/23 09:11:23;;;;;;;1.30;0.90;;;15.40;99.90;;;14.89;100.00;97172.25;5041159;28;20745;-72
2022/10/23 09:14:17;;;;;;;1.80;0.85;;;15.60;99.90;;;15.18;100.00;97172.19;5035210;28;20419;-71
2022/10/23 09:16:59;;;;;;;3.72;0.90;;;15.80;99.90;;;15.28;100.00;97177.41;5019629;28;20405;-72
2022/10/23 09:19:28;;;;;;;2.75;1.17;;;15.90;99.90;;;15.49;99.04;97178.72;5037234;28;20847;-69
2022/10/23 09:21:55;;;;;;;2.95;1.25;;;16.10;99.90;;;15.59;93.41;97180.50;5031438;28;20402;-70
2022/10/23 09:24:23;;;;;;;2.50;0.95;;;16.30;99.90;;;15.50;92.89;97170.44;5029292;28;20510;-70
2022/10/23 09:26:52;;;;;;;2.08;1.00;;;16.20;99.90;;;15.52;91.86;97178.16;5029597;28;20824;-70
2022/10/23 09:29:23;;;;;;;2.67;0.98;;;16.30;99.90;;;15.62;96.87;97179.94;5037525;28;20405;-70
2022/10/23 09:31:51;;;;;;;1.73;1.20;;;16.30;99.90;;;15.79;100.00;97167.66;5043462;28;20405;-69
2022/10/23 09:34:20;;;;;;;3.72;1.60;;;16.40;99.90;;;15.83;91.82;97163.34;5031491;28;20422;-72
2022/10/23 09:36:51;;;;;;;1.55;1.33;;;16.60;99.90;;;15.95;97.73;97162.09;5025616;28;20411;-71
2022/10/23 09:39:25;;;;;;;1.55;1.33;;;16.60;99.90;;;16.06;100.00;97153.63;5038964;28;20459;-71
2022/10/23 09:41:51;;;;;;;2.97;1.10;;;16.70;99.90;;;16.15;100.00;97145.75;5035448;28;20875;-71
2022/10/23 09:44:22;;;;;;;2.80;1.20;;;16.70;99.90;;;16.20;100.00;97148.34;5044403;28;20524;-71
2022/10/23 09:46:52;;;;;;;2.33;1.10;;;16.80;99.90;;;16.29;96.78;97145.78;5034968;28;20413;-71
2022/10/23 09:49:21;;;;;;;2.25;1.00;;;16.90;99.90;;;16.17;84.55;97151.56;5046921;28;20439;-72
2022/10/23 09:52:00;;;;;;;4.20;1.00;;;16.90;99.90;;;16.21;86.81;97148.03;5032964;28;20821;-71
2022/10/23 09:54:28;;;;;;;0.80;0.80;;;16.90;99.90;;;16.40;93.19;97142.63;5025013;28;20908;-71
2022/10/23 09:56:57;;;;;;;2.67;1.00;;;17.00;99.90;;;16.63;91.70;97139.03;5032442;28;20402;-72
2022/10/23 09:59:27;;;;;;;2.72;0.80;;;17.20;99.90;;;16.52;88.95;97137.63;5032795;28;20403;-71
2022/10/23 10:01:56;;;;;;;1.17;0.75;;;17.20;99.90;;;16.67;95.62;97147.28;5030631;28;20411;-71
2022/10/23 10:04:37;;;;;;;1.10;0.82;;;17.30;99.90;;;16.81;91.80;97139.25;5028745;28;20391;-71
2022/10/23 10:07:14;;;;;;;1.60;1.05;;;17.40;99.90;;;16.94;96.90;97149.94;5032644;28;20403;-71
2022/10/23 10:09:40;;;;;;;3.67;0.98;;;17.40;99.90;;;16.97;86.90;97153.94;5032033;28;20395;-70
2022/10/23 10:12:29;;;;;;;1.92;0.93;;;17.60;99.90;;;16.90;86.49;97156.19;5032502;28;21042;-71
2022/10/23 10:15:07;;;;;;;1.90;0.77;;;17.50;99.90;;;17.00;93.86;97155.97;5025408;28;20454;-71
2022/10/23 10:17:42;;;;;;;2.22;0.82;;;17.60;99.90;;;17.07;96.64;97153.69;5032855;28;20409;-76
2022/10/23 10:20:51;;;;;;;1.00;0.77;;;17.70;99.90;;;17.11;98.21;97157.38;5032771;28;20411;-77